createdAt,value
2023-04-04T00:00:21.774Z,99.90
2023-04-04T00:02:49.850Z,99.90
2023-04-04T00:05:16.895Z,99.90
2023-04-04T00:07:47.325Z,99.90
2023-04-04T00:10:14.792Z,99.90
2023-04-04T00:12:42.465Z,99.90
2023-04-04T00:15:09.877Z,99.90
2023-04-04T00:17:36.774Z,99.90
2023-04-04T00:20:04.501Z,99.90
2023-04-04T00:22:32.213Z,99.90
2023-04-04T00:24:59.134Z,99.90
2023-04-04T00:27:26.327Z,99.90
2023-04-04T00:29:53.504Z,99.90
2023-04-04T00:32:20.718Z,99.90
2023-04-04T00:34:53.154Z,99.90
2023-04-04T00:37:20.340Z,99.90
2023-04-04T00:39:47.783Z,99.90
2023-04-04T00:42:14.713Z,99.90
2023-04-04T00:44:41.610Z,99.90
2023-04-04T00:47:08.543Z,99.90
2023-04-04T00:49:35.663Z,99.90
2023-04-04T00:52:03.124Z,99.90
2023-04-04T00:54:31.148Z,99.90
2023-04-04T00:56:58.250Z,99.90
2023-04-04T00:59:27.835Z,99.90
2023-04-04T01:01:55.063Z,99.90
2023-04-04T01:04:22.407Z,99.90
2023-04-04T01:06:50.959Z,99.90
2023-04-04T01:09:18.546Z,99.90
2023-04-04T01:11:45.657Z,99.90
2023-04-04T01:14:12.495Z,99.90
2023-04-04T01:16:39.836Z,99.90
2023-04-04T01:19:11.631Z,99.90
2023-04-04T01:21:39.449Z,99.90
2023-04-04T01:24:08.588Z,99.90
2023-04-04T01:26:35.736Z,99.90
2023-04-04T01:29:02.562Z,99.90
2023-04-04T01:31:51.675Z,99.90
2023-04-04T01:34:48.849Z,99.90
2023-04-04T01:37:36.093Z,99.90
2023-04-04T01:40:17.845Z,99.90
2023-04-04T01:42:49.222Z,99.90
2023-04-04T01:45:16.261Z,99.90
2023-04-04T01:47:44.051Z,99.90
2023-04-04T01:50:11.926Z,99.90
2023-04-04T01:52:38.880Z,99.90
2023-04-04T01:55:06.481Z,99.90
2023-04-04T01:57:33.401Z,99.90
2023-04-04T02:00:00.227Z,99.90
2023-04-04T02:02:27.308Z,99.90
2023-04-04T02:04:54.274Z,99.90
2023-04-04T02:07:21.188Z,99.90
2023-04-04T02:09:48.026Z,99.90
2023-04-04T02:12:14.913Z,99.90
2023-04-04T02:14:41.723Z,99.90
2023-04-04T02:17:08.734Z,99.90
2023-04-04T02:19:35.819Z,99.90
2023-04-04T02:22:02.815Z,99.90
2023-04-04T02:24:29.673Z,99.90
2023-04-04T02:26:56.706Z,99.90
2023-04-04T02:29:23.571Z,99.90
2023-04-04T02:31:50.501Z,99.90
2023-04-04T02:34:17.412Z,99.90
2023-04-04T02:36:44.246Z,99.90
2023-04-04T02:39:11.108Z,99.90
2023-04-04T02:41:37.929Z,99.90
2023-04-04T02:44:04.713Z,99.90
2023-04-04T02:46:31.540Z,99.90
2023-04-04T02:48:58.409Z,99.90
2023-04-04T02:51:25.347Z,99.90
2023-04-04T02:53:52.351Z,99.90
2023-04-04T02:56:19.297Z,99.90
2023-04-04T02:58:46.723Z,99.90
2023-04-04T03:01:13.722Z,99.90
2023-04-04T03:03:40.851Z,99.90
2023-04-04T03:06:08.087Z,99.90
2023-04-04T03:08:35.744Z,99.90
2023-04-04T03:11:02.926Z,99.90
2023-04-04T03:13:29.754Z,99.90
2023-04-04T03:16:04.612Z,99.90
2023-04-04T03:18:31.603Z,99.90
2023-04-04T03:20:58.499Z,99.90
2023-04-04T03:23:25.310Z,99.90
2023-04-04T03:25:52.175Z,99.90
2023-04-04T03:28:18.961Z,99.90
2023-04-04T03:30:45.838Z,99.90
2023-04-04T03:33:12.882Z,99.90
2023-04-04T03:35:40.680Z,99.90
2023-04-04T03:38:10.798Z,99.90
2023-04-04T03:40:37.743Z,99.90
2023-04-04T03:43:10.387Z,99.90
2023-04-04T03:45:37.323Z,99.90
2023-04-04T03:48:04.405Z,99.90
2023-04-04T03:50:31.392Z,99.90
2023-04-04T03:52:58.487Z,99.90
2023-04-04T03:55:26.369Z,99.90
2023-04-04T03:57:53.409Z,99.90
2023-04-04T04:00:20.706Z,99.90
2023-04-04T04:02:47.608Z,99.90
2023-04-04T04:05:14.631Z,99.90
2023-04-04T04:07:44.400Z,99.90
2023-04-04T04:10:14.299Z,99.90
2023-04-04T04:12:41.641Z,99.90
2023-04-04T04:15:08.922Z,99.90
2023-04-04T04:17:40.334Z,99.90
2023-04-04T04:20:08.654Z,99.90
2023-04-04T04:22:36.231Z,99.90
2023-04-04T04:25:03.249Z,99.90
2023-04-04T04:27:30.934Z,99.90
2023-04-04T04:29:57.760Z,99.90
2023-04-04T04:32:26.606Z,99.90
2023-04-04T04:34:53.630Z,99.90
2023-04-04T04:37:20.555Z,99.90
2023-04-04T04:39:47.524Z,99.90
2023-04-04T04:42:14.345Z,99.90
2023-04-04T04:44:41.534Z,99.90
2023-04-04T04:47:08.551Z,99.90
2023-04-04T04:49:35.749Z,99.90
2023-04-04T04:52:02.787Z,99.90
2023-04-04T04:54:29.653Z,99.90
2023-04-04T04:57:01.346Z,99.90
2023-04-04T04:59:28.244Z,99.90
2023-04-04T05:01:55.305Z,99.90
2023-04-04T05:04:22.301Z,99.90
2023-04-04T05:06:49.148Z,99.90
2023-04-04T05:09:16.016Z,99.90
2023-04-04T05:11:42.834Z,99.90
2023-04-04T05:14:09.711Z,99.90
2023-04-04T05:16:36.624Z,99.90
2023-04-04T05:19:03.657Z,99.90
2023-04-04T05:21:30.752Z,99.90
2023-04-04T05:23:58.573Z,99.90
2023-04-04T05:26:25.403Z,99.90
2023-04-04T05:28:52.194Z,99.90
2023-04-04T05:31:19.222Z,99.90
2023-04-04T05:33:46.129Z,99.90
2023-04-04T05:36:13.217Z,99.90
2023-04-04T05:38:40.168Z,99.90
2023-04-04T05:41:08.233Z,99.90
2023-04-04T05:43:35.089Z,99.90
2023-04-04T05:46:02.104Z,99.90
2023-04-04T05:48:28.965Z,99.90
2023-04-04T05:50:56.015Z,99.90
2023-04-04T05:53:23.176Z,99.90
2023-04-04T05:55:53.456Z,99.90
2023-04-04T05:58:20.576Z,99.90
2023-04-04T06:00:47.513Z,99.90
2023-04-04T06:03:14.537Z,99.90
2023-04-04T06:05:43.971Z,99.90
2023-04-04T06:08:10.982Z,99.90
2023-04-04T06:10:38.129Z,99.90
2023-04-04T06:13:05.402Z,99.90
2023-04-04T06:15:32.236Z,99.90
2023-04-04T06:17:59.061Z,99.90
2023-04-04T06:20:26.003Z,99.90
2023-04-04T06:22:53.278Z,99.90
2023-04-04T06:25:20.536Z,99.90
2023-04-04T06:27:47.431Z,99.90
2023-04-04T06:30:17.135Z,99.90
2023-04-04T06:32:44.058Z,99.90
2023-04-04T06:35:11.094Z,99.90
2023-04-04T06:37:37.851Z,99.90
2023-04-04T06:40:05.116Z,99.90
2023-04-04T06:42:32.334Z,99.90
2023-04-04T06:44:59.178Z,99.90
2023-04-04T06:47:26.046Z,99.90
2023-04-04T06:49:53.044Z,99.90
2023-04-04T06:52:19.922Z,99.90
2023-04-04T06:54:46.889Z,99.90
2023-04-04T06:57:13.796Z,99.90
2023-04-04T06:59:40.631Z,99.90
2023-04-04T07:02:07.503Z,99.90
2023-04-04T07:04:35.288Z,99.90
2023-04-04T07:07:02.237Z,99.90
2023-04-04T07:09:29.724Z,99.90
2023-04-04T07:11:56.891Z,99.90
2023-04-04T07:14:25.385Z,99.90
2023-04-04T07:16:53.223Z,99.90
2023-04-04T07:19:20.396Z,99.90
2023-04-04T07:21:47.243Z,99.90
2023-04-04T07:24:14.117Z,99.90
2023-04-04T07:26:41.194Z,99.90
2023-04-04T07:29:08.143Z,99.90
2023-04-04T07:31:35.129Z,99.90
2023-04-04T07:34:02.141Z,99.90
2023-04-04T07:36:29.195Z,99.90
2023-04-04T07:38:56.158Z,99.90
2023-04-04T07:41:23.134Z,99.90
2023-04-04T07:43:50.241Z,99.90
2023-04-04T07:46:17.914Z,99.90
2023-04-04T07:48:44.892Z,99.90
2023-04-04T07:51:12.553Z,99.90
2023-04-04T07:53:39.376Z,99.90
2023-04-04T07:56:06.760Z,99.90
2023-04-04T07:58:34.439Z,99.90
2023-04-04T08:01:02.175Z,99.90
2023-04-04T08:03:29.402Z,99.90
2023-04-04T08:05:56.427Z,99.90
2023-04-04T08:08:23.443Z,99.90
2023-04-04T08:10:50.418Z,99.90
2023-04-04T08:13:17.299Z,99.90
2023-04-04T08:15:44.378Z,99.90
2023-04-04T08:18:11.522Z,99.90
2023-04-04T08:20:38.955Z,99.90
2023-04-04T08:23:05.930Z,99.90
2023-04-04T08:25:32.856Z,99.90
2023-04-04T08:27:59.852Z,99.90
2023-04-04T08:30:27.336Z,99.90
2023-04-04T08:32:54.237Z,99.90
2023-04-04T08:35:21.206Z,99.90
2023-04-04T08:37:48.528Z,99.90
2023-04-04T08:40:16.387Z,99.90
2023-04-04T08:42:46.040Z,99.90
2023-04-04T08:45:12.949Z,99.90
2023-04-04T08:47:41.654Z,99.90
2023-04-04T08:50:08.947Z,99.90
2023-04-04T08:52:36.875Z,99.90
2023-04-04T08:55:07.266Z,99.90
2023-04-04T08:57:34.200Z,99.80
2023-04-04T09:00:03.059Z,99.40
2023-04-04T09:02:39.876Z,99.00
2023-04-04T09:05:08.818Z,98.90
2023-04-04T09:07:38.931Z,99.10
2023-04-04T09:10:09.515Z,98.80
2023-04-04T09:12:38.657Z,98.10
2023-04-04T09:15:06.103Z,98.10
2023-04-04T09:17:35.759Z,98.20
2023-04-04T09:20:06.907Z,98.00
2023-04-04T09:22:33.876Z,98.00
2023-04-04T09:25:00.848Z,97.70
2023-04-04T09:27:27.728Z,97.70
2023-04-04T09:29:54.621Z,97.60
2023-04-04T09:32:23.209Z,97.50
2023-04-04T09:34:50.374Z,97.90
2023-04-04T09:37:17.808Z,97.80
2023-04-04T09:39:45.692Z,97.50
2023-04-04T09:42:12.747Z,97.00
2023-04-04T09:44:39.703Z,97.40
2023-04-04T09:49:58.727Z,97.20
2023-04-04T09:52:25.650Z,97.00
2023-04-04T09:55:00.719Z,95.50
2023-04-04T09:57:32.846Z,95.20
2023-04-04T10:00:01.499Z,95.00
2023-04-04T10:02:31.227Z,94.80
2023-04-04T10:05:06.140Z,94.60
2023-04-04T10:07:33.997Z,95.00
2023-04-04T10:10:09.167Z,95.30
2023-04-04T10:12:39.176Z,95.50
2023-04-04T10:15:06.685Z,95.60
2023-04-04T10:17:42.103Z,95.30
2023-04-04T10:20:10.442Z,95.60
2023-04-04T10:22:38.725Z,94.90
2023-04-04T10:25:07.256Z,94.00
2023-04-04T10:27:35.182Z,93.30
2023-04-04T10:30:02.487Z,92.70
2023-04-04T10:32:35.236Z,92.40
2023-04-04T10:35:12.888Z,92.30
2023-04-04T10:37:52.790Z,92.40
2023-04-04T10:40:23.073Z,92.40
2023-04-04T10:42:50.932Z,91.30
2023-04-04T10:45:21.672Z,90.80
2023-04-04T10:47:49.334Z,91.20
2023-04-04T10:50:16.383Z,91.70
2023-04-04T10:52:44.590Z,90.70
2023-04-04T10:55:15.836Z,91.00
2023-04-04T10:57:45.487Z,90.80
2023-04-04T11:00:13.078Z,90.20
2023-04-04T11:02:46.009Z,89.10
2023-04-04T11:05:34.132Z,87.90
2023-04-04T11:08:10.597Z,86.80
2023-04-04T11:10:41.363Z,87.10
2023-04-04T11:13:15.874Z,85.50
2023-04-04T11:15:52.610Z,85.10
2023-04-04T11:18:43.858Z,83.10
2023-04-04T11:21:26.504Z,81.20
2023-04-04T11:24:02.135Z,80.60
2023-04-04T11:26:28.905Z,80.10
2023-04-04T11:29:05.253Z,78.90
2023-04-04T11:31:40.237Z,79.20
2023-04-04T11:34:11.508Z,77.80
2023-04-04T11:36:38.461Z,78.80
2023-04-04T11:39:16.747Z,78.80
2023-04-04T11:41:47.860Z,73.80
2023-04-04T11:44:18.626Z,77.10
2023-04-04T11:46:50.956Z,73.70
2023-04-04T11:49:18.624Z,68.70
2023-04-04T11:51:46.754Z,72.70
2023-04-04T11:54:17.296Z,74.90
2023-04-04T11:56:45.468Z,67.80
2023-04-04T11:59:13.841Z,70.60
2023-04-04T12:01:41.217Z,71.40
2023-04-04T12:04:09.483Z,69.60
2023-04-04T12:06:37.513Z,67.90
2023-04-04T12:09:05.954Z,69.80
2023-04-04T12:11:37.219Z,68.10
2023-04-04T12:14:04.323Z,66.60
2023-04-04T12:16:31.265Z,69.20
2023-04-04T12:19:02.234Z,69.20
2023-04-04T12:21:32.612Z,67.80
2023-04-04T12:23:59.726Z,66.70
2023-04-04T12:26:29.947Z,66.50
2023-04-04T12:28:58.265Z,67.60
2023-04-04T12:31:29.635Z,67.50
2023-04-04T12:33:56.561Z,65.90
2023-04-04T12:36:29.868Z,67.20
2023-04-04T12:39:02.586Z,67.20
2023-04-04T12:41:29.645Z,65.80
2023-04-04T12:44:04.487Z,65.80
2023-04-04T12:46:42.085Z,65.00
2023-04-04T12:49:13.998Z,63.40
2023-04-04T12:51:41.316Z,59.90
2023-04-04T12:54:08.129Z,62.10
2023-04-04T12:56:37.037Z,63.80
2023-04-04T12:59:04.914Z,60.40
2023-04-04T13:01:33.350Z,57.70
2023-04-04T13:04:05.756Z,61.20
2023-04-04T13:06:33.453Z,58.70
2023-04-04T13:09:01.322Z,59.90
2023-04-04T13:12:04.554Z,57.70
2023-04-04T13:15:00.729Z,59.70
2023-04-04T13:17:44.298Z,60.40
2023-04-04T13:20:12.657Z,59.90
2023-04-04T13:22:40.920Z,60.20
2023-04-04T13:25:09.637Z,60.30
2023-04-04T13:27:37.975Z,60.20
2023-04-04T13:30:06.848Z,54.40
2023-04-04T13:32:34.471Z,58.30
2023-04-04T13:35:01.372Z,59.90
2023-04-04T13:37:28.336Z,59.90
2023-04-04T13:39:55.530Z,60.40
2023-04-04T13:42:26.903Z,59.80
2023-04-04T13:44:53.801Z,61.20
2023-04-04T13:47:22.701Z,61.50
2023-04-04T13:49:49.586Z,62.10
2023-04-04T13:52:16.625Z,61.60
2023-04-04T13:54:44.018Z,61.80
2023-04-04T13:57:11.265Z,61.60
2023-04-04T13:59:38.109Z,61.80
2023-04-04T14:02:05.073Z,61.00
2023-04-04T14:04:32.073Z,57.20
2023-04-04T14:06:58.966Z,59.40
2023-04-04T14:09:25.835Z,60.70
2023-04-04T14:11:52.683Z,59.50
2023-04-04T14:14:19.754Z,59.70
2023-04-04T14:16:47.211Z,59.80
2023-04-04T14:19:14.163Z,59.60
2023-04-04T14:21:41.139Z,61.00
2023-04-04T14:24:08.022Z,60.50
2023-04-04T14:26:36.908Z,60.10
2023-04-04T14:29:03.949Z,56.40
2023-04-04T14:31:32.509Z,61.70
2023-04-04T14:33:59.482Z,55.70
2023-04-04T14:36:26.707Z,59.20
2023-04-04T14:38:54.584Z,54.20
2023-04-04T14:41:23.567Z,59.50
2023-04-04T14:43:51.169Z,58.50
2023-04-04T14:46:19.675Z,58.30
2023-04-04T14:48:47.698Z,58.10
2023-04-04T14:51:14.886Z,58.00
2023-04-04T14:53:42.231Z,58.10
2023-04-04T14:56:09.128Z,57.20
2023-04-04T14:58:36.019Z,56.40
2023-04-04T15:01:03.665Z,57.70
2023-04-04T15:03:30.764Z,57.90
2023-04-04T15:05:57.895Z,58.80
2023-04-04T15:08:24.754Z,58.70
2023-04-04T15:10:51.835Z,59.80
2023-04-04T15:13:18.838Z,59.90
2023-04-04T15:15:45.925Z,58.80
2023-04-04T15:18:12.762Z,60.70
2023-04-04T15:20:40.465Z,60.50
2023-04-04T15:23:07.539Z,60.50
2023-04-04T15:25:34.484Z,60.80
2023-04-04T15:28:01.604Z,61.80
2023-04-04T15:30:29.378Z,62.00
2023-04-04T15:32:57.014Z,62.60
2023-04-04T15:35:24.242Z,63.60
2023-04-04T15:37:51.334Z,62.60
2023-04-04T15:40:19.163Z,63.10
2023-04-04T15:42:46.678Z,64.90
2023-04-04T15:45:14.591Z,65.00
2023-04-04T15:47:42.485Z,65.50
2023-04-04T15:50:11.102Z,65.10
2023-04-04T15:52:38.555Z,66.00
2023-04-04T15:55:11.550Z,66.40
2023-04-04T15:57:40.844Z,66.70
2023-04-04T16:00:07.909Z,67.00
2023-04-04T16:02:34.966Z,68.30
2023-04-04T16:05:02.218Z,67.70
2023-04-04T16:07:29.132Z,68.50
2023-04-04T16:09:56.237Z,68.40
2023-04-04T16:12:23.092Z,69.00
2023-04-04T16:14:49.981Z,69.30
2023-04-04T16:17:16.874Z,69.20
2023-04-04T16:19:43.766Z,69.60
2023-04-04T16:22:10.678Z,70.30
2023-04-04T16:24:37.722Z,70.50
2023-04-04T16:27:04.612Z,70.50
2023-04-04T16:29:31.645Z,69.70
2023-04-04T16:31:58.505Z,70.90
2023-04-04T16:34:25.385Z,71.50
2023-04-04T16:36:52.257Z,71.50
2023-04-04T16:39:19.203Z,72.30
2023-04-04T16:41:46.061Z,72.80
2023-04-04T16:44:13.357Z,72.80
2023-04-04T16:46:40.576Z,73.90
2023-04-04T16:49:08.346Z,74.20
2023-04-04T16:51:35.761Z,74.20
2023-04-04T16:54:02.735Z,74.40
2023-04-04T16:56:30.702Z,75.20
2023-04-04T16:58:57.662Z,75.30
2023-04-04T17:01:26.197Z,75.30
2023-04-04T17:03:53.324Z,76.20
2023-04-04T17:06:20.203Z,75.00
2023-04-04T17:08:49.049Z,76.90
2023-04-04T17:11:16.885Z,77.50
2023-04-04T17:13:43.744Z,77.50
2023-04-04T17:16:10.700Z,77.90
2023-04-04T17:18:37.660Z,78.00
2023-04-04T17:21:04.969Z,79.00
2023-04-04T17:23:32.000Z,79.60
2023-04-04T17:25:58.856Z,80.00
2023-04-04T17:28:25.743Z,80.10
2023-04-04T17:30:52.962Z,80.30
2023-04-04T17:33:21.167Z,81.10
2023-04-04T17:35:48.209Z,81.60
2023-04-04T17:38:15.482Z,82.20
2023-04-04T17:40:42.369Z,82.30
2023-04-04T17:43:09.310Z,82.50
2023-04-04T17:45:36.296Z,82.50
2023-04-04T17:48:03.324Z,81.80
2023-04-04T17:50:30.422Z,82.60
2023-04-04T17:52:57.374Z,83.40
2023-04-04T17:55:24.364Z,84.20
2023-04-04T17:57:51.900Z,84.70
2023-04-04T18:00:19.175Z,85.20
2023-04-04T18:02:46.383Z,85.50
2023-04-04T18:05:14.308Z,85.70
2023-04-04T18:07:41.286Z,86.10
2023-04-04T18:10:09.112Z,86.70
2023-04-04T18:12:36.389Z,86.90
2023-04-04T18:15:03.968Z,87.30
2023-04-04T18:17:32.367Z,88.00
2023-04-04T18:20:00.985Z,88.20
2023-04-04T18:22:28.276Z,89.20
2023-04-04T18:24:55.233Z,89.60
2023-04-04T18:27:22.147Z,90.00
2023-04-04T18:29:49.095Z,90.10
2023-04-04T18:32:16.652Z,90.30
2023-04-04T18:34:43.519Z,90.50
2023-04-04T18:37:12.327Z,90.60
2023-04-04T18:39:39.229Z,90.50
2023-04-04T18:42:06.143Z,90.70
2023-04-04T18:44:33.046Z,90.80
2023-04-04T18:47:04.189Z,91.00
2023-04-04T18:49:31.620Z,91.20
2023-04-04T18:51:58.546Z,91.30
2023-04-04T18:54:27.216Z,91.50
2023-04-04T18:56:57.200Z,91.50
2023-04-04T18:59:25.923Z,91.70
2023-04-04T19:01:54.057Z,91.70
2023-04-04T19:04:22.324Z,92.00
2023-04-04T19:06:50.670Z,92.10
2023-04-04T19:09:20.137Z,92.30
2023-04-04T19:11:47.273Z,92.40
2023-04-04T19:14:14.458Z,92.70
2023-04-04T19:16:42.004Z,93.10
2023-04-04T19:19:08.916Z,93.20
2023-04-04T19:21:35.835Z,93.40
2023-04-04T19:24:03.131Z,93.60
2023-04-04T19:26:29.964Z,93.60
2023-04-04T19:28:56.870Z,93.70
2023-04-04T19:31:29.934Z,93.90
2023-04-04T19:33:57.421Z,94.00
2023-04-04T19:36:24.708Z,94.00
2023-04-04T19:38:54.725Z,94.10
2023-04-04T19:41:36.498Z,94.20
2023-04-04T19:44:06.490Z,94.40
2023-04-04T19:46:34.512Z,94.70
2023-04-04T19:49:24.826Z,95.00
2023-04-04T19:51:53.685Z,95.20
2023-04-04T19:54:28.236Z,95.40
2023-04-04T19:57:03.713Z,95.50
2023-04-04T20:00:01.379Z,95.90
2023-04-04T20:02:31.120Z,96.00
2023-04-04T20:04:58.101Z,96.30
2023-04-04T20:07:25.368Z,96.60
2023-04-04T20:09:52.722Z,96.90
2023-04-04T20:12:24.115Z,97.30
2023-04-04T20:14:51.574Z,97.60
2023-04-04T20:17:18.953Z,97.80
2023-04-04T20:19:45.901Z,98.10
2023-04-04T20:22:13.522Z,98.40
2023-04-04T20:24:42.439Z,98.60
2023-04-04T20:27:10.522Z,98.60
2023-04-04T20:29:37.752Z,98.90
2023-04-04T20:32:08.372Z,98.90
2023-04-04T20:34:46.962Z,99.20
2023-04-04T20:37:21.875Z,99.40
2023-04-04T20:40:01.398Z,99.60
2023-04-04T20:42:32.427Z,99.50
2023-04-04T20:45:10.157Z,99.50
2023-04-04T20:47:51.962Z,99.60
2023-04-04T20:50:19.183Z,99.60
2023-04-04T20:52:53.285Z,99.60
2023-04-04T20:55:22.503Z,99.60
2023-04-04T20:57:51.400Z,99.70
2023-04-04T21:00:36.340Z,99.70
2023-04-04T21:03:09.691Z,99.60
2023-04-04T21:05:38.956Z,99.80
2023-04-04T21:08:36.685Z,99.80
2023-04-04T21:11:04.641Z,99.80
2023-04-04T21:13:36.664Z,99.90
2023-04-04T21:16:10.043Z,99.90
2023-04-04T21:18:38.454Z,99.90
2023-04-04T21:21:20.574Z,99.90
2023-04-04T21:23:48.683Z,99.90
2023-04-04T21:26:25.849Z,99.90
2023-04-04T21:28:52.728Z,99.90
2023-04-04T21:31:23.526Z,99.90
2023-04-04T21:33:56.026Z,99.90
2023-04-04T21:36:28.762Z,99.90
2023-04-04T21:38:57.792Z,99.90
2023-04-04T21:41:32.704Z,99.90
2023-04-04T21:44:04.801Z,99.90
2023-04-04T21:46:34.599Z,99.90
2023-04-04T21:49:01.820Z,99.90
2023-04-04T21:51:28.712Z,99.90
2023-04-04T21:53:56.287Z,99.90
2023-04-04T21:56:27.271Z,99.90
2023-04-04T21:58:55.510Z,99.90
2023-04-04T22:01:22.557Z,99.90
2023-04-04T22:03:49.537Z,99.90
2023-04-04T22:06:17.068Z,99.90
2023-04-04T22:08:43.943Z,99.90
2023-04-04T22:11:13.619Z,99.90
2023-04-04T22:13:46.957Z,99.90
2023-04-04T22:16:18.905Z,99.90
2023-04-04T22:18:52.501Z,99.90
2023-04-04T22:21:27.760Z,99.90
2023-04-04T22:24:01.038Z,99.90
2023-04-04T22:26:37.400Z,99.90
2023-04-04T22:29:05.327Z,99.90
2023-04-04T22:31:34.485Z,99.90
2023-04-04T22:34:03.067Z,99.90
2023-04-04T22:36:30.288Z,99.90
2023-04-04T22:38:57.788Z,99.90
2023-04-04T22:41:27.981Z,99.90
2023-04-04T22:43:55.761Z,99.90
2023-04-04T22:46:23.048Z,99.90
2023-04-04T22:48:50.014Z,99.90
2023-04-04T22:51:16.984Z,99.90
2023-04-04T22:53:44.376Z,99.90
2023-04-04T22:56:11.831Z,99.90
2023-04-04T22:58:38.836Z,99.90
2023-04-04T23:01:06.341Z,99.90
2023-04-04T23:03:33.580Z,99.90
2023-04-04T23:06:00.540Z,99.90
2023-04-04T23:08:27.808Z,99.90
2023-04-04T23:10:54.643Z,99.90
2023-04-04T23:13:22.333Z,99.90
2023-04-04T23:15:49.499Z,99.90
2023-04-04T23:18:16.539Z,99.90
2023-04-04T23:20:43.743Z,99.90
2023-04-04T23:23:10.762Z,99.90
2023-04-04T23:25:37.628Z,99.90
2023-04-04T23:28:04.517Z,99.90
2023-04-04T23:30:31.438Z,99.90
2023-04-04T23:32:58.352Z,99.90
2023-04-04T23:35:25.414Z,99.90
2023-04-04T23:37:52.348Z,99.90
2023-04-04T23:40:19.253Z,99.90
2023-04-04T23:42:46.103Z,99.90
2023-04-04T23:45:14.078Z,99.90
2023-04-04T23:47:41.020Z,99.90
2023-04-04T23:50:08.650Z,99.90
2023-04-04T23:52:37.389Z,99.90
2023-04-04T23:55:04.846Z,99.90
2023-04-04T23:57:31.656Z,99.90
2023-04-04T23:59:58.525Z,99.90
